Time;durP1;ratioP1;P1;durP2;ratioP2;P2;SDS_P1;SDS_P2;PMS_P1;PMS_P2;Temp;Humidity;BMP_temperature;BMP_pressure;BME280_temperature;BME280_humidity;BME280_pressure;Samples;Min_cycle;Max_cycle;Signal;HPM_P1;HPM_P2
2023/10/20 00:01:41;;;;;;;4.50;3.42;;;;;;;13.11;100.00;97792.16;4882321;29;20059;-68
2023/10/20 00:04:44;;;;;;;10.02;5.32;;;;;;;13.13;100.00;97782.34;4882337;29;20187;-68
2023/10/20 00:07:48;;;;;;;5.40;4.00;;;;;;;13.11;100.00;97789.53;4881905;29;20047;-68
2023/10/20 00:10:52;;;;;;;7.63;4.32;;;;;;;13.06;100.00;97783.16;4881892;29;20189;-68
2023/10/20 00:13:55;;;;;;;8.60;4.47;;;;;;;13.09;100.00;97782.84;4882184;29;20079;-68
2023/10/20 00:16:58;;;;;;;14.48;5.70;;;;;;;12.98;100.00;97770.84;4881903;29;20052;-68
2023/10/20 00:20:02;;;;;;;11.27;4.63;;;;;;;13.01;100.00;97768.72;4881854;29;20052;-68
2023/10/20 00:23:05;;;;;;;6.43;4.25;;;;;;;13.04;100.00;97771.00;4882019;29;20141;-68
2023/10/20 00:26:08;;;;;;;7.85;4.72;;;;;;;13.04;100.00;97775.44;4881629;29;20048;-68
2023/10/20 00:29:11;;;;;;;;;;;;;;;12.78;100.00;97768.53;4870415;29;20123;-68
2023/10/20 00:32:15;;;;;;;11.88;4.88;;;;;;;12.87;100.00;97760.69;4881960;29;19922;-68
2023/10/20 00:35:19;;;;;;;7.63;4.40;;;;;;;12.91;100.00;97748.88;4881601;29;20059;-67
2023/10/20 00:38:22;;;;;;;6.32;4.28;;;;;;;12.96;100.00;97747.41;4881807;29;20462;-67
2023/10/20 00:41:26;;;;;;;5.60;4.60;;;;;;;12.97;100.00;97758.72;4881563;29;20064;-68
2023/10/20 00:44:29;;;;;;;8.60;6.10;;;;;;;12.68;100.00;97760.00;4868897;29;20048;-68
2023/10/20 00:47:36;;;;;;;10.65;6.25;;;;;;;12.74;100.00;97742.81;4881385;29;20081;-68
2023/10/20 00:50:40;;;;;;;5.75;4.78;;;;;;;12.86;100.00;97730.19;4881357;29;20578;-67
2023/10/20 00:53:45;;;;;;;12.38;4.78;;;;;;;12.93;100.00;97724.13;4869843;29;20047;-67
2023/10/20 00:56:48;;;;;;;7.18;5.60;;;;;;;12.93;100.00;97715.44;4881350;29;20107;-67
2023/10/20 00:59:52;;;;;;;8.05;5.22;;;;;;;12.98;100.00;97721.00;4881272;29;20044;-67
2023/10/20 01:02:55;;;;;;;7.00;6.00;;;;;;;12.93;100.00;97715.44;4869728;29;20168;-67
2023/10/20 01:06:02;;;;;;;6.78;5.03;;;;;;;12.94;100.00;97712.66;4869568;29;20079;-67
2023/10/20 01:09:09;;;;;;;10.30;5.88;;;;;;;12.92;100.00;97717.25;4869604;29;20414;-67
2023/10/20 01:12:13;;;;;;;8.65;7.15;;;;;;;12.97;100.00;97708.88;4880948;29;20051;-69
2023/10/20 01:15:18;;;;;;;12.18;6.20;;;;;;;12.99;100.00;97709.56;4881182;29;20413;-70
2023/10/20 01:18:21;;;;;;;20.73;6.97;;;;;;;12.87;100.00;97700.38;4869336;29;20553;-67
2023/10/20 01:21:25;;;;;;;10.63;6.28;;;;;;;12.82;100.00;97698.22;4869607;29;20052;-67
2023/10/20 01:24:31;;;;;;;7.75;5.50;;;;;;;12.85;100.00;97684.78;4869388;29;20052;-68
2023/10/20 01:27:36;;;;;;;55.20;9.02;;;;;;;12.93;100.00;97689.22;4869021;29;20052;-68
2023/10/20 01:30:39;;;;;;;;;;;;;;;12.99;100.00;97688.56;4881334;29;20413;-69
2023/10/20 01:33:42;;;;;;;8.38;6.65;;;;;;;13.02;100.00;97680.38;4880922;29;20387;-68
2023/10/20 01:36:48;;;;;;;8.55;5.95;;;;;;;13.00;100.00;97679.72;4869148;29;20051;-68
2023/10/20 01:39:52;;;;;;;8.00;5.40;;;;;;;12.98;100.00;97684.28;4880789;29;20071;-68
2023/10/20 01:42:55;;;;;;;7.85;6.10;;;;;;;13.04;100.00;97678.38;4880654;29;20462;-68
2023/10/20 01:46:00;;;;;;;7.50;6.55;;;;;;;13.08;100.00;97684.13;4880403;29;20105;-68
2023/10/20 01:49:05;;;;;;;8.15;6.78;;;;;;;13.09;100.00;97681.34;4880304;29;20144;-68
2023/10/20 01:52:09;;;;;;;7.15;6.43;;;;;;;13.06;100.00;97679.06;4880298;29;20470;-68
2023/10/20 01:55:12;;;;;;;10.93;6.15;;;;;;;13.06;100.00;97658.06;4879937;29;20055;-68
2023/10/20 01:58:16;;;;;;;;;;;;;;;13.07;100.00;97654.44;4869097;29;20244;-68
2023/10/20 02:01:22;;;;;;;9.38;7.18;;;;;;;13.04;100.00;97636.41;4868608;29;19979;-67
2023/10/20 02:04:26;;;;;;;9.18;6.15;;;;;;;13.03;100.00;97635.59;4868794;29;20048;-68
2023/10/20 02:07:29;;;;;;;8.43;5.45;;;;;;;13.07;100.00;97616.91;4879874;29;20077;-68
2023/10/20 02:10:33;;;;;;;7.38;5.43;;;;;;;13.05;100.00;97609.22;4868422;29;20093;-68
2023/10/20 02:13:40;;;;;;;7.03;4.70;;;;;;;13.02;100.00;97604.31;4879933;29;20520;-68
2023/10/20 02:16:43;;;;;;;6.25;4.78;;;;;;;13.04;100.00;97586.56;4880155;29;20083;-68
2023/10/20 02:19:47;;;;;;;6.85;4.65;;;;;;;12.98;100.00;97579.38;4879818;29;20064;-68
2023/10/20 02:22:50;;;;;;;5.30;4.63;;;;;;;12.98;100.00;97571.50;4868257;29;20044;-68
2023/10/20 02:26:05;;;;;;;5.22;4.55;;;;;;;13.00;100.00;97556.44;4879926;29;20048;-68
2023/10/20 02:29:09;;;;;;;10.25;4.60;;;;;;;13.00;100.00;97561.69;4879274;29;20056;-68
2023/10/20 02:32:15;;;;;;;9.65;5.43;;;;;;;13.05;100.00;97551.50;4868423;29;20462;-68
2023/10/20 02:35:19;;;;;;;5.60;4.80;;;;;;;13.02;100.00;97547.41;4879814;29;20504;-68
2023/10/20 02:38:22;;;;;;;5.57;4.90;;;;;;;13.07;100.00;97535.59;4868043;29;20044;-68
2023/10/20 02:41:28;;;;;;;10.23;5.38;;;;;;;13.05;100.00;97525.28;4879398;29;20525;-68
2023/10/20 02:44:31;;;;;;;6.78;3.95;;;;;;;13.08;100.00;97529.34;4879447;29;20093;-68
2023/10/20 02:47:35;;;;;;;7.95;4.65;;;;;;;13.10;100.00;97533.44;4867850;29;20048;-68
2023/10/20 02:50:38;;;;;;;8.65;5.32;;;;;;;12.98;100.00;97529.53;4879424;29;20088;-68
2023/10/20 02:53:42;;;;;;;5.13;4.10;;;;;;;13.01;100.00;97521.34;4879360;29;20109;-68
2023/10/20 02:56:45;;;;;;;6.93;4.85;;;;;;;13.08;100.00;97519.69;4867924;29;20104;-68
2023/10/20 02:59:49;;;;;;;6.43;5.30;;;;;;;13.11;100.00;97505.41;4879297;29;20105;-68
2023/10/20 03:02:53;;;;;;;6.95;5.03;;;;;;;13.13;100.00;97499.00;4879237;29;20409;-68
2023/10/20 03:05:56;;;;;;;6.65;4.30;;;;;;;13.20;100.00;97497.31;4867501;29;20105;-68
2023/10/20 03:09:00;;;;;;;5.10;4.45;;;;;;;13.19;100.00;97477.34;4879095;29;20048;-68
2023/10/20 03:12:03;;;;;;;5.25;4.75;;;;;;;13.23;100.00;97472.56;4867590;29;20164;-68
2023/10/20 03:15:10;;;;;;;7.10;4.85;;;;;;;13.22;100.00;97463.88;4879166;29;20057;-68
2023/10/20 03:18:14;;;;;;;7.57;4.72;;;;;;;13.26;100.00;97470.44;4879002;29;20136;-68
2023/10/20 03:21:18;;;;;;;7.95;5.22;;;;;;;13.26;100.00;97457.31;4878927;29;20100;-68
2023/10/20 03:24:21;;;;;;;9.60;4.35;;;;;;;13.35;100.00;97441.53;4867841;29;20063;-68
2023/10/20 03:27:25;;;;;;;7.50;5.55;;;;;;;13.35;100.00;97442.34;4867470;29;20115;-68
2023/10/20 03:30:29;;;;;;;6.85;5.55;;;;;;;13.28;100.00;97430.13;4857010;29;20132;-68
2023/10/20 03:33:32;;;;;;;6.78;4.32;;;;;;;13.33;100.00;97425.97;4867372;29;20051;-68
2023/10/20 03:36:35;;;;;;;13.13;5.97;;;;;;;13.33;100.00;97425.16;4867380;29;20056;-68
2023/10/20 03:39:39;;;;;;;7.65;5.88;;;;;;;13.32;100.00;97431.38;4878882;29;20173;-68
2023/10/20 03:42:43;;;;;;;6.53;4.90;;;;;;;13.35;100.00;97439.72;4879106;29;20055;-68
2023/10/20 03:45:51;;;;;;;7.43;5.10;;;;;;;13.43;100.00;97412.59;4867599;29;20442;-68
2023/10/20 03:48:55;;;;;;;10.18;5.53;;;;;;;13.41;100.00;97404.91;4878794;29;20060;-68
2023/10/20 03:51:58;;;;;;;6.80;5.68;;;;;;;13.42;100.00;97401.28;4867330;29;20593;-68
2023/10/20 03:55:02;;;;;;;7.65;5.38;;;;;;;13.39;100.00;97403.47;4867181;29;20105;-68
2023/10/20 03:58:05;;;;;;;5.65;4.75;;;;;;;13.44;100.00;97398.50;4878926;29;20446;-68
2023/10/20 04:01:09;;;;;;;12.95;6.63;;;;;;;13.43;100.00;97381.97;4878913;29;20121;-68
2023/10/20 04:04:12;;;;;;;5.90;4.97;;;;;;;13.52;100.00;97353.81;4878687;29;20047;-68
2023/10/20 04:07:15;;;;;;;8.93;5.57;;;;;;;13.46;100.00;97360.59;4878587;29;20406;-68
2023/10/20 04:10:19;;;;;;;8.63;6.25;;;;;;;13.43;100.00;97344.38;4878583;29;20512;-68
2023/10/20 04:13:25;;;;;;;7.90;5.90;;;;;;;13.49;100.00;97320.03;4878908;29;20537;-68
2023/10/20 04:16:29;;;;;;;9.40;6.03;;;;;;;13.54;100.00;97330.84;4878844;29;20606;-68
2023/10/20 04:19:32;;;;;;;10.95;5.68;;;;;;;13.58;100.00;97323.44;4881944;29;20063;-68
2023/10/20 04:22:35;;;;;;;9.77;5.50;;;;;;;13.57;100.00;97312.13;4881872;29;20611;-68
2023/10/20 04:25:39;;;;;;;7.03;5.22;;;;;;;13.65;100.00;97301.53;4882059;29;20081;-68
2023/10/20 04:28:43;;;;;;;7.55;5.57;;;;;;;13.70;100.00;97288.69;4881494;29;20060;-68
2023/10/20 04:55:13;;;;;;;6.93;5.07;;;;;;;13.83;100.00;97187.47;4862775;29;20129;-68
2023/10/20 04:58:24;;;;;;;9.05;6.50;;;;;;;13.77;100.00;97203.94;4863035;29;20055;-68
2023/10/20 05:01:39;;;;;;;9.02;7.78;;;;;;;13.68;100.00;97198.78;4862775;29;20056;-68
2023/10/20 05:04:46;;;;;;;8.05;7.00;;;;;;;13.68;100.00;97201.41;4862503;29;20097;-68
2023/10/20 05:07:50;;;;;;;6.10;5.50;;;;;;;13.81;100.00;97199.97;4862526;29;20057;-68
2023/10/20 05:10:54;;;;;;;6.35;5.75;;;;;;;13.84;100.00;97194.34;4862730;29;20064;-68
2023/10/20 05:13:57;;;;;;;7.57;5.45;;;;;;;13.90;100.00;97191.00;4862460;29;20052;-68
2023/10/20 05:17:01;;;;;;;10.68;5.80;;;;;;;13.91;100.00;97185.56;4862425;29;20463;-68
2023/10/20 05:20:14;;;;;;;8.27;5.80;;;;;;;13.95;100.00;97168.44;4862372;29;20048;-68
2023/10/20 05:23:17;;;;;;;7.97;5.88;;;;;;;13.99;100.00;97160.19;4862302;29;20049;-68
2023/10/20 05:26:20;;;;;;;;;;;;;;;13.95;100.00;97162.38;4862541;29;20057;-68
2023/10/20 05:29:24;;;;;;;9.13;5.60;;;;;;;13.91;100.00;97153.22;4861430;29;19927;-68
2023/10/20 05:32:31;;;;;;;7.43;6.07;;;;;;;13.89;100.00;97134.22;4843642;29;20136;-68
2023/10/20 05:35:34;;;;;;;10.05;6.53;;;;;;;13.83;100.00;97127.88;4843116;29;20143;-68
2023/10/20 05:38:38;;;;;;;9.65;7.60;;;;;;;13.88;100.00;97128.16;4843834;29;20045;-69
2023/10/20 05:41:41;;;;;;;11.45;7.43;;;;;;;13.90;100.00;97135.84;4843482;29;20049;-69
2023/10/20 05:45:09;;;;;;;9.70;7.32;;;;;;;13.90;100.00;97117.44;4842694;29;20163;-69
2023/10/20 05:48:13;;;;;;;15.50;9.60;;;;;;;13.87;100.00;97110.75;4843326;29;20053;-69
2023/10/20 05:51:16;;;;;;;9.88;7.47;;;;;;;13.80;100.00;97099.38;4843270;29;20065;-68
2023/10/20 05:54:19;;;;;;;9.35;7.65;;;;;;;13.77;100.00;97088.41;4875773;29;20508;-68
2023/10/20 05:57:23;;;;;;;9.10;8.07;;;;;;;13.71;100.00;97089.97;4876933;29;20079;-68
2023/10/20 06:00:26;;;;;;;12.48;10.52;;;;;;;13.63;100.00;97083.00;4877248;29;20044;-68
2023/10/20 06:03:30;;;;;;;9.45;7.70;;;;;;;13.72;100.00;97084.53;4875608;29;20075;-68
2023/10/20 06:06:33;;;;;;;12.90;10.40;;;;;;;13.72;100.00;97071.41;4876348;29;20044;-68
2023/10/20 06:09:37;;;;;;;10.45;9.32;;;;;;;13.72;100.00;97087.16;4877341;29;20093;-68
2023/10/20 06:12:40;;;;;;;11.77;9.95;;;;;;;13.71;100.00;97082.91;4878150;29;20044;-69
2023/10/20 06:15:44;;;;;;;17.23;11.73;;;;;;;13.64;100.00;97076.75;4879908;29;20189;-68
2023/10/20 06:18:51;;;;;;;13.45;10.13;;;;;;;13.68;100.00;97072.75;4879414;29;20398;-69
2023/10/20 06:21:55;;;;;;;9.88;8.07;;;;;;;13.73;100.00;97073.03;4879000;29;20145;-68
2023/10/20 06:24:59;;;;;;;15.50;9.90;;;;;;;13.69;100.00;97084.91;4867246;29;20124;-68
2023/10/20 06:28:04;;;;;;;10.15;7.88;;;;;;;13.72;100.00;97092.41;4878708;29;20044;-68
2023/10/20 06:34:31;;;;;;;9.63;8.60;;;;;;;13.80;100.00;97088.06;4878980;29;20372;-69
2023/10/20 06:37:54;;;;;;;13.65;8.30;;;;;;;13.84;100.00;97084.06;4867564;29;20048;-69
2023/10/20 06:40:58;;;;;;;11.82;10.00;;;;;;;13.81;100.00;97074.72;4855173;29;20128;-69
2023/10/20 06:44:01;;;;;;;12.82;9.07;;;;;;;13.83;100.00;97072.75;4866913;29;20121;-69
2023/10/20 06:47:05;;;;;;;18.05;12.43;;;;;;;13.75;100.00;97074.66;4878032;29;20408;-69
2023/10/20 06:50:11;;;;;;;19.05;11.82;;;;;;;13.73;100.00;97062.53;4878108;29;20176;-69
2023/10/20 06:53:14;;;;;;;15.82;9.48;;;;;;;13.81;100.00;97047.66;4878257;29;20120;-69
2023/10/20 06:56:18;;;;;;;13.65;11.73;;;;;;;13.72;100.00;97037.28;4878031;29;20112;-69
2023/10/20 06:59:24;;;;;;;12.65;10.63;;;;;;;13.72;100.00;97029.41;4877883;29;20135;-70
2023/10/20 07:02:27;;;;;;;14.77;10.60;;;;;;;13.72;100.00;97018.91;4878037;29;20092;-70
2023/10/20 07:05:31;;;;;;;14.60;10.57;;;;;;;13.72;100.00;97011.03;4873270;29;20048;-69
2023/10/20 07:08:35;;;;;;;12.20;11.00;;;;;;;13.74;100.00;97013.44;4859143;29;20458;-69
2023/10/20 07:11:40;;;;;;;12.45;9.68;;;;;;;13.76;100.00;97013.28;4859237;29;20059;-69
2023/10/20 07:14:43;;;;;;;15.13;12.10;;;;;;;13.75;100.00;97019.50;4859285;29;20113;-69
2023/10/20 07:17:46;;;;;;;12.90;10.52;;;;;;;13.72;100.00;97024.16;4859256;29;20048;-69
2023/10/20 07:20:50;;;;;;;11.73;10.38;;;;;;;13.76;100.00;97014.09;4859388;29;20064;-68
2023/10/20 07:23:53;;;;;;;12.32;10.43;;;;;;;13.76;100.00;97000.16;4859152;29;20049;-69
2023/10/20 07:26:57;;;;;;;13.63;9.75;;;;;;;13.81;100.00;96987.25;4859192;29;20407;-68
2023/10/20 07:30:06;;;;;;;12.02;10.18;;;;;;;13.80;100.00;96977.78;4859024;29;20525;-68
2023/10/20 07:33:09;;;;;;;12.23;10.07;;;;;;;13.70;100.00;96989.38;4858869;29;20065;-68
2023/10/20 07:36:13;;;;;;;22.90;11.65;;;;;;;13.74;100.00;96995.06;4858817;29;20467;-68
2023/10/20 07:39:16;;;;;;;13.48;10.38;;;;;;;13.77;100.00;97001.78;4858802;29;20052;-67
2023/10/20 07:42:19;;;;;;;10.65;9.55;;;;;;;13.82;100.00;96999.41;4858906;29;20076;-68
2023/10/20 07:45:22;;;;;;;11.30;10.10;;;;;;;13.85;100.00;96988.53;4858779;29;20047;-68
2023/10/20 07:48:26;;;;;;;12.98;9.43;;;;;;;13.80;100.00;96998.78;4858792;29;20068;-69
2023/10/20 07:51:29;;;;;;;10.60;9.02;;;;;;;13.80;100.00;97014.53;4858726;29;20068;-67
2023/10/20 07:54:33;;;;;;;12.35;10.45;;;;;;;13.73;100.00;97015.28;4862516;29;20065;-69
2023/10/20 07:57:36;;;;;;;12.48;10.95;;;;;;;13.57;100.00;97018.13;4862858;29;20053;-69
2023/10/20 08:00:39;;;;;;;10.65;8.88;;;;;;;13.72;100.00;97011.03;4862098;29;20109;-69
2023/10/20 08:03:47;;;;;;;13.00;9.57;;;;;;;13.84;100.00;97005.28;4850003;29;20058;-70
2023/10/20 08:06:51;;;;;;;11.75;10.13;;;;;;;13.91;100.00;97001.72;4862276;29;20079;-67
2023/10/20 08:09:54;;;;;;;12.75;10.40;;;;;;;13.97;100.00;97000.13;4862284;29;20422;-70
2023/10/20 08:12:59;;;;;;;12.95;9.07;;;;;;;14.00;100.00;96999.78;4861829;29;20147;-71
2023/10/20 08:16:06;;;;;;;12.15;10.73;;;;;;;14.01;100.00;97004.03;4862211;29;20091;-68
2023/10/20 08:19:09;;;;;;;17.90;12.35;;;;;;;13.92;100.00;97008.59;4862169;29;20044;-72
2023/10/20 08:22:14;;;;;;;16.33;11.73;;;;;;;13.89;100.00;97008.16;4861964;29;20557;-70
2023/10/20 08:25:17;;;;;;;12.23;9.63;;;;;;;13.80;100.00;97014.53;4850132;29;20052;-70
2023/10/20 08:28:21;;;;;;;12.38;11.13;;;;;;;13.80;100.00;97011.91;4861730;29;20249;-70
2023/10/20 08:31:26;;;;;;;13.48;12.02;;;;;;;13.79;100.00;97002.41;4850853;29;20052;-70
2023/10/20 08:34:31;;;;;;;14.20;10.95;;;;;;;13.93;100.00;97004.97;4850384;29;20423;-70
2023/10/20 08:37:35;;;;;;;11.95;10.32;;;;;;;13.95;100.00;97012.66;4861833;29;20136;-70
2023/10/20 08:40:38;;;;;;;15.05;11.32;;;;;;;13.97;100.00;97015.91;4861877;29;20052;-70
2023/10/20 08:43:43;;;;;;;11.50;10.15;;;;;;;14.05;100.00;97028.94;4850110;29;20414;-70
2023/10/20 08:46:51;;;;;;;9.55;8.65;;;;;;;14.04;100.00;97056.22;4861729;29;20057;-69
2023/10/20 08:49:55;;;;;;;10.82;9.45;;;;;;;14.07;100.00;97066.34;4861478;29;20076;-70
2023/10/20 08:53:04;;;;;;;10.55;8.68;;;;;;;14.05;100.00;97070.16;4861681;29;20052;-69
2023/10/20 08:56:08;;;;;;;13.98;11.18;;;;;;;14.07;100.00;97073.38;4861177;29;20471;-70
2023/10/20 08:59:11;;;;;;;11.95;9.93;;;;;;;14.15;100.00;97066.19;4861254;29;20064;-70
2023/10/20 09:02:15;;;;;;;10.65;9.02;;;;;;;14.15;100.00;97060.94;4861333;29;20414;-71
2023/10/20 09:05:24;;;;;;;9.57;8.50;;;;;;;14.18;100.00;97055.31;4860355;29;20051;-72
2023/10/20 09:08:27;;;;;;;9.85;8.88;;;;;;;14.30;100.00;97052.19;4861191;29;20068;-71
2023/10/20 09:11:35;;;;;;;12.23;8.40;;;;;;;14.38;100.00;97038.91;4861341;29;20103;-70
2023/10/20 09:14:39;;;;;;;11.23;8.57;;;;;;;14.35;100.00;97036.66;4861031;29;20137;-70
2023/10/20 09:17:44;;;;;;;12.60;9.98;;;;;;;14.30;100.00;97039.06;4861199;29;20073;-70
2023/10/20 09:20:54;;;;;;;12.85;9.10;;;;;;;14.27;100.00;97027.09;4849611;29;20418;-70
2023/10/20 09:24:02;;;;;;;10.52;9.43;;;;;;;14.29;100.00;97029.53;4849238;29;20450;-70
2023/10/20 09:27:07;;;;;;;13.15;9.60;;;;;;;14.27;100.00;97031.56;4860938;29;20060;-71
2023/10/20 09:30:14;;;;;;;10.32;9.23;;;;;;;14.33;100.00;97025.56;4860563;29;20101;-70
2023/10/20 09:33:17;;;;;;;13.75;8.60;;;;;;;14.35;100.00;97024.34;4863651;29;20203;-70
2023/10/20 09:36:23;;;;;;;11.48;8.75;;;;;;;14.40;100.00;97015.91;4863314;29;20446;-70
2023/10/20 09:39:47;;;;;;;12.50;9.50;;;;;;;14.40;100.00;97010.63;4875576;29;20040;-70
2023/10/20 09:43:10;;;;;;;11.15;9.15;;;;;;;14.43;100.00;97018.94;4876390;29;20044;-70
2023/10/20 09:46:19;;;;;;;13.93;10.25;;;;;;;14.40;100.00;97011.44;4876947;29;20040;-70
2023/10/20 09:49:28;;;;;;;10.35;9.25;;;;;;;14.53;100.00;97016.03;4862687;29;20048;-70
2023/10/20 09:52:34;;;;;;;10.90;8.18;;;;;;;14.48;100.00;97012.31;4876814;29;20097;-70
2023/10/20 09:55:40;;;;;;;11.10;8.55;;;;;;;14.47;100.00;97029.91;4866527;29;20071;-70
2023/10/20 09:59:00;;;;;;;9.35;8.20;;;;;;;14.51;100.00;97046.13;4865061;29;20104;-70
2023/10/20 10:02:04;;;;;;;9.60;8.60;;;;;;;14.40;100.00;97063.19;4873938;29;20048;-70
2023/10/20 10:05:10;;;;;;;12.68;8.93;;;;;;;14.34;100.00;97079.72;4876017;29;20044;-70
2023/10/20 10:08:21;;;;;;;10.57;8.82;;;;;;;14.21;100.00;97076.97;4878368;29;20098;-70
2023/10/20 10:11:30;;;;;;;10.20;8.63;;;;;;;14.21;100.00;97075.16;4878643;29;20121;-71
2023/10/20 10:14:33;;;;;;;11.10;9.88;;;;;;;14.17;100.00;97069.47;4878690;29;20071;-70
2023/10/20 10:17:54;;;;;;;17.80;10.23;;;;;;;14.18;100.00;97070.28;4878180;29;20040;-70
2023/10/20 10:21:05;;;;;;;9.55;8.65;;;;;;;14.27;100.00;97074.41;4878389;29;20144;-71
2023/10/20 10:24:14;;;;;;;11.05;9.93;;;;;;;14.32;100.00;97061.50;4878257;29;20052;-70
2023/10/20 10:27:19;;;;;;;11.15;8.93;;;;;;;14.45;100.00;97058.19;4878082;29;20120;-71
2023/10/20 10:30:29;;;;;;;11.40;8.93;;;;;;;14.51;100.00;97060.09;4866632;29;20124;-70
2023/10/20 10:33:32;;;;;;;10.95;9.27;;;;;;;14.52;100.00;97058.28;4878213;29;20071;-70
2023/10/20 10:36:48;;;;;;;11.82;8.77;;;;;;;14.38;100.00;97049.44;4878354;29;20084;-69
2023/10/20 10:39:51;;;;;;;8.30;7.50;;;;;;;14.49;100.00;97050.75;4877967;29;20394;-69
2023/10/20 10:42:58;;;;;;;10.40;8.30;;;;;;;14.53;100.00;97047.56;4878232;29;20104;-70
2023/10/20 10:46:01;;;;;;;9.85;7.57;;;;;;;14.52;100.00;97051.22;4878385;29;20629;-69
2023/10/20 10:49:14;;;;;;;12.35;9.15;;;;;;;14.46;100.00;97038.00;4878374;29;20068;-71
2023/10/20 10:52:17;;;;;;;9.45;8.43;;;;;;;14.51;100.00;97048.75;4877607;29;20056;-68
2023/10/20 10:55:21;;;;;;;9.77;8.77;;;;;;;14.63;100.00;97042.78;4877726;29;20061;-69
2023/10/20 10:58:24;;;;;;;10.95;8.35;;;;;;;14.68;100.00;97017.72;4877662;29;20532;-69
2023/10/20 11:01:28;;;;;;;9.93;7.97;;;;;;;14.69;100.00;97014.13;4877485;29;20397;-69
2023/10/20 11:04:33;;;;;;;8.57;7.25;;;;;;;14.92;100.00;96996.25;4877768;29;20367;-68
2023/10/20 11:07:36;;;;;;;9.90;7.30;;;;;;;15.18;100.00;97003.47;4877200;29;20088;-67
2023/10/20 11:10:45;;;;;;;10.00;8.15;;;;;;;15.26;100.00;96998.03;4877825;29;20060;-67
2023/10/20 11:13:48;;;;;;;8.48;7.25;;;;;;;15.22;100.00;97004.72;4877275;29;20047;-66
2023/10/20 11:16:52;;;;;;;11.35;7.32;;;;;;;15.22;100.00;96999.44;4877600;29;20056;-67
2023/10/20 11:19:56;;;;;;;10.23;7.03;;;;;;;15.24;100.00;96999.25;4877188;29;20170;-69
2023/10/20 11:23:04;;;;;;;8.65;7.45;;;;;;;15.09;100.00;97000.19;4877354;29;20165;-68
2023/10/20 11:26:17;;;;;;;8.38;7.20;;;;;;;15.22;100.00;97009.97;4877380;29;20508;-67
2023/10/20 11:29:20;;;;;;;7.63;6.93;;;;;;;15.17;100.00;97001.84;4880425;29;20128;-67
2023/10/20 11:32:25;;;;;;;8.02;7.22;;;;;;;15.18;100.00;96992.13;4881302;29;20055;-68
2023/10/20 11:35:30;;;;;;;11.40;7.65;;;;;;;15.23;100.00;96995.00;4881391;29;20429;-68
2023/10/20 11:38:33;;;;;;;12.90;7.72;;;;;;;15.10;100.00;96991.28;4869706;29;20072;-68
2023/10/20 11:41:38;;;;;;;9.80;7.25;;;;;;;15.14;100.00;96996.16;4881192;29;20093;-68
2023/10/20 11:44:41;;;;;;;9.73;7.32;;;;;;;15.15;100.00;96987.25;4881649;29;20067;-68
2023/10/20 11:47:46;;;;;;;10.25;8.48;;;;;;;14.94;100.00;97002.13;4880923;29;20108;-69
2023/10/20 11:50:50;;;;;;;10.43;7.82;;;;;;;14.77;100.00;97004.28;4832715;29;20606;-70
2023/10/20 11:53:53;;;;;;;15.00;8.70;;;;;;;14.82;100.00;96993.97;4843887;29;20190;-71
2023/10/20 11:56:56;;;;;;;10.70;9.38;;;;;;;14.84;100.00;96997.22;4843808;29;20148;-70
2023/10/20 12:00:02;;;;;;;17.50;11.70;;;;;;;14.87;100.00;97010.00;4843761;29;20045;-69
2023/10/20 12:03:15;;;;;;;12.63;9.73;;;;;;;14.88;100.00;97008.97;4843501;29;20049;-68
2023/10/20 12:06:18;;;;;;;15.63;10.63;;;;;;;14.85;100.00;96998.84;4843509;29;20518;-71
2023/10/20 12:09:21;;;;;;;10.75;8.38;;;;;;;14.91;100.00;96993.81;4842260;29;20056;-67
2023/10/20 12:12:25;;;;;;;10.95;9.77;;;;;;;14.93;100.00;96979.44;4843417;29;20521;-69
2023/10/20 12:15:30;;;;;;;13.75;8.50;;;;;;;14.88;100.00;96982.69;4843240;29;20072;-68
2023/10/20 12:18:52;;;;;;;10.85;8.55;;;;;;;15.01;100.00;96966.16;4860205;29;20064;-68
2023/10/20 12:22:00;;;;;;;10.47;8.90;;;;;;;14.97;100.00;96974.63;4862196;29;20060;-67
2023/10/20 12:25:07;;;;;;;12.77;10.60;;;;;;;14.90;100.00;96985.13;4861860;29;20115;-68
2023/10/20 12:28:10;;;;;;;15.40;10.93;;;;;;;14.96;100.00;96984.31;4862034;29;20145;-67
2023/10/20 12:31:13;;;;;;;11.23;10.13;;;;;;;14.91;100.00;96991.19;4861926;29;20045;-67
2023/10/20 12:34:18;;;;;;;19.58;10.43;;;;;;;14.85;100.00;97003.28;4862125;29;20052;-67
2023/10/20 12:37:21;;;;;;;10.00;8.95;;;;;;;14.84;100.00;97002.50;4861653;29;20185;-67
2023/10/20 12:40:25;;;;;;;10.50;9.10;;;;;;;14.78;100.00;97012.97;4860624;29;20044;-67
2023/10/20 12:43:28;;;;;;;11.65;9.65;;;;;;;14.84;100.00;97022.72;4861471;29;20049;-67
2023/10/20 12:46:31;;;;;;;11.25;9.13;;;;;;;14.86;100.00;97026.75;4861713;29;20055;-66
2023/10/20 12:49:34;;;;;;;10.95;9.73;;;;;;;14.83;100.00;97031.59;4861520;29;20048;-66
2023/10/20 12:52:41;;;;;;;9.57;8.50;;;;;;;14.73;100.00;97036.38;4861692;29;20481;-66
2023/10/20 12:55:44;;;;;;;10.90;8.93;;;;;;;14.70;100.00;97021.81;4860865;29;20078;-66
2023/10/20 12:58:48;;;;;;;10.50;8.63;;;;;;;14.80;100.00;97021.47;4861113;29;20060;-66
2023/10/20 13:01:52;;;;;;;11.65;7.55;;;;;;;14.96;100.00;97021.16;4861545;29;20370;-65
2023/10/20 13:04:55;;;;;;;10.40;7.50;;;;;;;14.99;100.00;97033.91;4861712;29;20121;-67
2023/10/20 13:07:59;;;;;;;10.90;8.70;;;;;;;15.05;100.00;97020.00;4861386;29;20137;-66
2023/10/20 13:11:02;;;;;;;9.27;8.30;;;;;;;15.07;100.00;97033.78;4861655;29;20096;-66
2023/10/20 13:14:06;;;;;;;9.00;7.57;;;;;;;15.08;100.00;97034.59;4861201;29;20053;-66
2023/10/20 13:17:09;;;;;;;9.40;8.20;;;;;;;15.13;100.00;97044.53;4849650;29;20085;-66
2023/10/20 13:20:13;;;;;;;13.20;8.68;;;;;;;15.04;100.00;97047.31;4861234;29;20048;-66
2023/10/20 13:23:16;;;;;;;11.85;7.78;;;;;;;15.08;100.00;97051.19;4849720;29;20599;-66
2023/10/20 13:26:20;;;;;;;8.75;7.85;;;;;;;15.10;100.00;97051.81;4849341;29;20093;-66
2023/10/20 13:29:23;;;;;;;10.50;8.65;;;;;;;15.02;100.00;97051.13;4860489;29;20588;-66
2023/10/20 13:32:27;;;;;;;9.35;7.15;;;;;;;15.13;100.00;97047.19;4860868;29;20129;-66
2023/10/20 13:35:36;;;;;;;7.70;6.78;;;;;;;15.37;100.00;97053.75;4860721;29;20623;-66
2023/10/20 13:38:39;;;;;;;10.52;8.82;;;;;;;15.69;100.00;97052.31;4860584;29;20426;-66
2023/10/20 13:41:42;;;;;;;10.18;8.05;;;;;;;15.75;100.00;97069.97;4859352;29;20337;-66
2023/10/20 13:44:46;;;;;;;12.43;7.45;;;;;;;15.66;100.00;97063.19;4878754;29;20085;-66
2023/10/20 13:47:49;;;;;;;12.57;7.97;;;;;;;15.63;100.00;97053.06;4858863;29;20045;-66
2023/10/20 13:50:53;;;;;;;7.97;5.72;;;;;;;15.67;100.00;97059.63;4859776;29;20421;-66
2023/10/20 13:53:56;;;;;;;10.05;6.50;;;;;;;15.62;100.00;97056.72;4863095;29;20048;-66
2023/10/20 13:57:00;;;;;;;13.30;6.50;;;;;;;15.56;100.00;97069.66;4858405;29;20101;-66
2023/10/20 14:00:06;;;;;;;16.40;8.77;;;;;;;15.50;100.00;97059.91;4860582;29;20048;-66
2023/10/20 14:03:12;;;;;;;5.60;3.20;;;;;;;15.46;100.00;97057.88;4860264;29;20512;-67
2023/10/20 14:06:16;;;;;;;6.10;3.88;;;;;;;15.58;100.00;97069.47;4860090;29;20057;-66
2023/10/20 14:09:19;;;;;;;7.75;5.22;;;;;;;15.59;100.00;97074.53;4860090;29;20482;-67
2023/10/20 14:12:22;;;;;;;5.47;4.07;;;;;;;15.48;100.00;97098.78;4860044;29;20097;-66
2023/10/20 14:15:25;;;;;;;6.88;3.08;;;;;;;15.41;100.00;97126.91;4859916;29;20052;-66
2023/10/20 14:18:29;;;;;;;3.67;1.80;;;;;;;15.34;100.00;97129.47;4859902;29;20585;-66
2023/10/20 14:21:34;;;;;;;3.63;1.15;;;;;;;15.50;100.00;97133.63;4860225;29;20048;-67
2023/10/20 14:24:37;;;;;;;1.70;0.60;;;;;;;15.75;100.00;97147.16;4859983;29;20076;-66
2023/10/20 14:27:41;;;;;;;1.15;0.52;;;;;;;16.13;95.81;97149.34;4859693;29;20081;-66
2023/10/20 14:30:52;;;;;;;2.60;0.40;;;;;;;16.11;97.13;97167.16;4860065;29;20117;-67
2023/10/20 14:33:55;;;;;;;0.77;0.30;;;;;;;16.14;95.62;97193.13;4859728;29;20055;-66
2023/10/20 14:36:58;;;;;;;0.82;0.22;;;;;;;16.04;95.94;97188.22;4859542;29;20074;-67
2023/10/20 14:40:03;;;;;;;1.13;0.10;;;;;;;15.94;93.55;97195.69;4859897;29;20375;-66
2023/10/20 14:43:07;;;;;;;1.08;0.20;;;;;;;15.73;93.78;97206.28;4859666;29;20101;-66